createdAt,value
2018-12-17T00:01:16.277Z,29.17
2018-12-17T00:03:45.354Z,25.90
2018-12-17T00:06:14.521Z,23.97
2018-12-17T00:08:43.663Z,23.67
2018-12-17T00:11:12.799Z,28.67
2018-12-17T00:13:41.881Z,26.20
2018-12-17T00:16:10.976Z,23.27
2018-12-17T00:18:40.074Z,23.00
2018-12-17T00:21:09.195Z,23.27
2018-12-17T00:23:38.294Z,30.17
2018-12-17T00:26:07.408Z,24.93
2018-12-17T00:28:36.477Z,28.70
2018-12-17T00:31:05.601Z,29.20
2018-12-17T00:33:35.425Z,28.80
2018-12-17T00:36:04.575Z,31.60
2018-12-17T00:38:33.656Z,22.43
2018-12-17T00:41:02.775Z,23.93
2018-12-17T00:43:32.139Z,27.53
2018-12-17T00:46:01.273Z,37.83
2018-12-17T00:48:30.418Z,28.53
2018-12-17T00:50:59.504Z,33.50
2018-12-17T00:53:28.633Z,34.97
2018-12-17T00:55:57.739Z,30.93
2018-12-17T00:58:26.873Z,33.10
2018-12-17T01:00:55.997Z,30.33
2018-12-17T01:03:25.113Z,34.37
2018-12-17T01:05:54.206Z,29.40
2018-12-17T01:08:23.334Z,31.97
2018-12-17T01:10:52.447Z,24.20
2018-12-17T01:13:21.549Z,32.63
2018-12-17T01:15:50.653Z,34.30
2018-12-17T01:18:19.793Z,26.07
2018-12-17T01:20:48.919Z,27.10
2018-12-17T01:23:18.019Z,27.73
2018-12-17T01:25:47.129Z,35.53
2018-12-17T01:28:22.120Z,31.60
2018-12-17T01:30:48.074Z,33.67
2018-12-17T01:33:17.190Z,29.20
2018-12-17T01:35:46.298Z,31.10
2018-12-17T01:38:15.407Z,31.43
2018-12-17T01:40:44.533Z,29.70
2018-12-17T01:43:13.637Z,36.43
2018-12-17T01:45:42.742Z,25.57
2018-12-17T01:48:12.365Z,25.43
2018-12-17T01:50:41.552Z,27.20
2018-12-17T01:53:10.661Z,29.37
2018-12-17T01:55:39.782Z,31.60
2018-12-17T01:58:08.926Z,35.13
2018-12-17T02:00:38.029Z,28.97
2018-12-17T02:03:07.335Z,36.10
2018-12-17T02:05:36.428Z,30.73
2018-12-17T02:08:05.530Z,31.23
2018-12-17T02:10:34.626Z,30.13
2018-12-17T02:13:03.732Z,27.20
2018-12-17T02:15:32.853Z,28.33
2018-12-17T02:18:02.011Z,28.00
2018-12-17T02:20:31.098Z,31.33
2018-12-17T02:23:00.465Z,37.30
2018-12-17T02:25:29.578Z,24.73
2018-12-17T02:27:58.677Z,33.80
2018-12-17T02:30:27.772Z,27.77
2018-12-17T02:32:56.898Z,44.70
2018-12-17T02:35:26.011Z,31.30
2018-12-17T02:37:55.169Z,29.30
2018-12-17T02:40:24.769Z,28.80
2018-12-17T02:42:53.880Z,32.47
2018-12-17T02:45:23.007Z,29.13
2018-12-17T02:47:52.118Z,30.07
2018-12-17T02:50:21.236Z,33.33
2018-12-17T02:52:50.352Z,31.07
2018-12-17T02:55:19.445Z,34.57
2018-12-17T02:57:48.586Z,33.50
2018-12-17T03:00:17.692Z,29.63
2018-12-17T03:02:46.823Z,33.90
2018-12-17T03:05:15.934Z,30.60
2018-12-17T03:07:45.062Z,31.93
2018-12-17T03:10:14.155Z,27.73
2018-12-17T03:12:43.238Z,32.80
2018-12-17T03:15:12.326Z,25.60
2018-12-17T03:17:41.409Z,27.10
2018-12-17T03:20:10.511Z,30.00
2018-12-17T03:22:39.650Z,34.73
2018-12-17T03:25:08.740Z,31.70
2018-12-17T03:27:37.819Z,29.87
2018-12-17T03:30:07.333Z,29.43
2018-12-17T03:32:36.563Z,27.07
2018-12-17T03:35:05.705Z,25.83
2018-12-17T03:37:34.809Z,25.33
2018-12-17T03:40:03.930Z,21.47
2018-12-17T03:42:33.039Z,20.67
2018-12-17T03:45:02.136Z,27.23
2018-12-17T03:47:31.234Z,24.00
2018-12-17T03:50:00.391Z,27.77
2018-12-17T03:52:29.500Z,24.97
2018-12-17T03:54:58.573Z,35.93
2018-12-17T03:57:27.688Z,36.53
2018-12-17T03:59:56.784Z,48.73
2018-12-17T04:02:25.938Z,25.80
2018-12-17T04:04:55.290Z,44.43
2018-12-17T04:07:24.592Z,31.73
2018-12-17T04:09:53.711Z,36.60
2018-12-17T04:12:22.801Z,43.33
2018-12-17T04:14:51.929Z,46.53
2018-12-17T04:17:21.032Z,37.83
2018-12-17T04:19:50.139Z,27.53
2018-12-17T04:22:19.293Z,28.67
2018-12-17T04:24:48.402Z,33.03
2018-12-17T04:27:17.512Z,27.60
2018-12-17T04:29:46.606Z,27.43
2018-12-17T04:32:15.713Z,31.30
2018-12-17T04:34:44.836Z,31.73
2018-12-17T04:37:13.913Z,29.27
2018-12-17T04:39:43.011Z,26.00
2018-12-17T04:42:12.110Z,31.90
2018-12-17T04:44:41.261Z,36.10
2018-12-17T04:47:10.386Z,30.07
2018-12-17T04:49:39.522Z,34.00
2018-12-17T04:52:08.620Z,27.73
2018-12-17T04:54:37.742Z,36.37
2018-12-17T04:57:06.836Z,27.00
2018-12-17T04:59:35.959Z,35.67
2018-12-17T05:02:05.598Z,35.23
2018-12-17T05:04:34.772Z,30.63
2018-12-17T05:07:03.908Z,30.83
2018-12-17T05:09:33.045Z,33.60
2018-12-17T05:12:02.163Z,34.97
2018-12-17T05:14:31.280Z,36.30
2018-12-17T05:17:00.404Z,31.87
2018-12-17T05:19:29.505Z,30.27
2018-12-17T05:21:59.053Z,38.27
2018-12-17T05:24:28.158Z,38.73
2018-12-17T05:26:57.282Z,41.57
2018-12-17T05:29:26.402Z,44.33
2018-12-17T05:31:55.503Z,37.90
2018-12-17T05:34:24.632Z,41.60
2018-12-17T05:36:53.743Z,65.37
2018-12-17T05:39:22.863Z,59.37
2018-12-17T05:41:51.969Z,58.30
2018-12-17T05:44:21.070Z,57.57
2018-12-17T05:46:50.447Z,64.50
2018-12-17T05:49:19.598Z,54.50
2018-12-17T05:51:48.716Z,60.67
2018-12-17T05:54:17.888Z,60.17
2018-12-17T05:56:47.066Z,41.20
2018-12-17T05:59:16.674Z,40.80
2018-12-17T06:01:45.903Z,37.63
2018-12-17T06:04:15.112Z,37.00
2018-12-17T06:06:44.211Z,35.33
2018-12-17T06:09:13.947Z,36.83
2018-12-17T06:11:43.122Z,38.10
2018-12-17T06:14:12.224Z,29.43
2018-12-17T06:16:41.339Z,46.73
2018-12-17T06:19:10.463Z,41.70
2018-12-17T06:21:39.651Z,50.60
2018-12-17T06:24:08.725Z,44.97
2018-12-17T06:26:37.844Z,45.33
2018-12-17T06:29:06.958Z,55.47
2018-12-17T06:31:36.049Z,47.83
2018-12-17T06:34:05.160Z,67.90
2018-12-17T06:36:34.219Z,52.63
2018-12-17T06:39:04.727Z,50.93
2018-12-17T06:41:33.820Z,51.93
2018-12-17T06:44:02.939Z,53.50
2018-12-17T06:46:32.041Z,49.27
2018-12-17T06:49:01.130Z,53.43
2018-12-17T06:51:30.617Z,40.40
2018-12-17T06:53:59.714Z,48.77
2018-12-17T06:56:28.808Z,43.00
2018-12-17T06:58:57.889Z,40.13
2018-12-17T07:01:28.172Z,57.70
2018-12-17T07:03:57.543Z,46.37
2018-12-17T07:06:27.293Z,49.07
2018-12-17T07:08:56.436Z,47.33
2018-12-17T07:11:25.972Z,63.03
2018-12-17T07:13:55.092Z,65.20
2018-12-17T07:16:24.189Z,54.00
2018-12-17T07:18:54.315Z,48.87
2018-12-17T07:21:23.455Z,50.70
2018-12-17T07:23:52.542Z,51.00
2018-12-17T07:26:21.631Z,60.97
2018-12-17T07:28:50.750Z,53.30
2018-12-17T07:31:19.902Z,43.70
2018-12-17T07:33:49.008Z,51.43
2018-12-17T07:36:18.216Z,46.70
2018-12-17T07:38:47.348Z,46.50
2018-12-17T07:41:16.462Z,53.80
2018-12-17T07:43:45.607Z,56.90
2018-12-17T07:46:14.716Z,48.33
2018-12-17T07:48:43.821Z,54.27
2018-12-17T07:51:12.917Z,48.87
2018-12-17T07:53:42.028Z,43.97
2018-12-17T07:56:11.121Z,62.17
2018-12-17T07:58:40.217Z,55.00
2018-12-17T08:01:09.321Z,53.83
2018-12-17T08:03:38.402Z,60.57
2018-12-17T08:06:07.514Z,61.70
2018-12-17T08:08:36.610Z,60.43
2018-12-17T08:11:05.704Z,56.67
2018-12-17T08:13:34.813Z,57.20
2018-12-17T08:16:03.982Z,59.80
2018-12-17T08:18:33.086Z,53.63
2018-12-17T08:21:02.201Z,61.50
2018-12-17T08:23:31.309Z,53.90
2018-12-17T08:26:00.452Z,56.73
2018-12-17T08:28:29.577Z,52.07
2018-12-17T08:30:58.712Z,42.13
2018-12-17T08:33:27.781Z,49.83
2018-12-17T08:35:57.067Z,53.17
2018-12-17T08:38:26.171Z,40.93
2018-12-17T08:40:55.259Z,42.03
2018-12-17T08:43:24.360Z,41.30
2018-12-17T08:45:53.476Z,47.17
2018-12-17T08:48:22.584Z,55.23
2018-12-17T08:50:51.687Z,41.73
2018-12-17T08:53:20.805Z,53.53
2018-12-17T08:55:50.006Z,69.67
2018-12-17T08:58:19.286Z,79.87
2018-12-17T09:00:48.446Z,88.00
2018-12-17T09:03:17.547Z,58.70
2018-12-17T09:05:46.669Z,56.47
2018-12-17T09:08:15.767Z,61.43
2018-12-17T09:10:44.912Z,61.73
2018-12-17T09:13:14.089Z,54.10
2018-12-17T09:15:43.269Z,59.17
2018-12-17T09:18:12.360Z,54.23
2018-12-17T09:20:41.470Z,45.77
2018-12-17T09:23:10.601Z,53.17
2018-12-17T09:25:39.816Z,49.13
2018-12-17T09:28:08.941Z,49.60
2018-12-17T09:30:41.277Z,46.50
2018-12-17T09:33:09.204Z,52.67
2018-12-17T09:35:38.364Z,49.33
2018-12-17T09:38:07.485Z,61.63
2018-12-17T09:40:36.593Z,51.60
2018-12-17T09:43:05.688Z,48.73
2018-12-17T09:45:34.882Z,51.77
2018-12-17T09:48:03.982Z,68.90
2018-12-17T09:50:33.121Z,50.53
2018-12-17T09:53:02.256Z,42.00
2018-12-17T09:55:31.379Z,42.67
2018-12-17T09:58:00.473Z,68.60
2018-12-17T10:00:29.622Z,55.20
2018-12-17T10:02:58.698Z,45.67
2018-12-17T10:05:27.833Z,43.03
2018-12-17T10:07:57.856Z,46.93
2018-12-17T10:10:26.969Z,39.07
2018-12-17T10:12:56.094Z,45.60
2018-12-17T10:15:25.211Z,34.40
2018-12-17T10:17:54.312Z,43.30
2018-12-17T10:20:23.490Z,58.37
2018-12-17T10:22:52.584Z,63.13
2018-12-17T10:25:21.693Z,58.90
2018-12-17T10:27:50.813Z,62.70
2018-12-17T10:30:19.915Z,80.17
2018-12-17T10:32:49.061Z,77.53
2018-12-17T10:35:18.184Z,65.57
2018-12-17T10:37:47.327Z,61.77
2018-12-17T10:40:16.473Z,56.77
2018-12-17T10:42:45.609Z,47.67
2018-12-17T10:45:14.725Z,52.07
2018-12-17T10:47:43.833Z,47.37
2018-12-17T10:50:12.933Z,54.43
2018-12-17T10:52:42.025Z,45.47
2018-12-17T10:55:11.135Z,43.37
2018-12-17T10:57:40.249Z,50.97
2018-12-17T11:00:14.262Z,51.17
2018-12-17T11:02:43.409Z,56.03
2018-12-17T11:05:15.138Z,46.93
2018-12-17T11:07:44.266Z,55.20
2018-12-17T11:10:13.393Z,56.00
2018-12-17T11:15:26.020Z,68.93
2018-12-17T11:17:55.131Z,74.17
2018-12-17T11:20:24.648Z,60.50
2018-12-17T11:22:54.001Z,43.90
2018-12-17T11:25:23.090Z,50.77
2018-12-17T11:27:52.284Z,53.33
2018-12-17T11:30:21.377Z,50.90
2018-12-17T11:32:50.480Z,40.70
2018-12-17T11:35:19.585Z,47.97
2018-12-17T11:37:48.709Z,47.53
2018-12-17T11:40:17.833Z,63.63
2018-12-17T11:42:46.957Z,48.90
2018-12-17T11:45:16.101Z,48.00
2018-12-17T11:47:45.197Z,48.63
2018-12-17T11:50:14.346Z,56.37
2018-12-17T11:52:43.592Z,47.93
2018-12-17T11:55:12.705Z,61.67
2018-12-17T11:57:55.078Z,54.97
2018-12-17T12:00:26.174Z,54.60
2018-12-17T12:02:59.109Z,48.47
2018-12-17T12:06:29.634Z,48.70
2018-12-17T12:08:58.757Z,55.90
2018-12-17T12:11:27.908Z,61.13
2018-12-17T12:13:57.013Z,65.63
2018-12-17T12:16:26.138Z,65.67
2018-12-17T12:18:55.341Z,72.20
2018-12-17T12:21:24.495Z,81.70
2018-12-17T12:23:53.602Z,72.07
2018-12-17T12:26:22.796Z,63.17
2018-12-17T12:28:51.895Z,66.67
2018-12-17T12:31:21.036Z,108.13
2018-12-17T12:33:50.200Z,110.80
2018-12-17T12:36:21.838Z,88.93
2018-12-17T12:38:50.952Z,77.33
2018-12-17T12:41:20.234Z,60.67
2018-12-17T12:43:49.330Z,96.57
2018-12-17T12:46:20.770Z,136.17
2018-12-17T12:48:49.883Z,131.77
2018-12-17T12:51:19.140Z,111.40
2018-12-17T12:53:48.246Z,102.10
2018-12-17T12:56:17.391Z,105.13
2018-12-17T12:58:46.597Z,75.70
2018-12-17T13:01:15.757Z,101.13
2018-12-17T13:03:44.867Z,100.67
2018-12-17T13:06:13.991Z,80.30
2018-12-17T13:08:43.087Z,65.03
2018-12-17T13:11:12.222Z,120.50
2018-12-17T13:13:41.329Z,107.87
2018-12-17T13:16:10.471Z,135.37
2018-12-17T13:18:39.564Z,75.93
2018-12-17T13:21:08.674Z,69.83
2018-12-17T13:23:37.833Z,79.57
2018-12-17T13:26:06.964Z,83.30
2018-12-17T13:28:36.080Z,89.67
2018-12-17T13:31:05.213Z,110.43
2018-12-17T13:33:34.325Z,82.77
2018-12-17T13:36:04.202Z,87.70
2018-12-17T13:38:33.325Z,90.80
2018-12-17T13:41:02.463Z,88.37
2018-12-17T13:43:31.565Z,522.13
2018-12-17T13:46:00.746Z,384.87
2018-12-17T13:48:29.908Z,104.03
2018-12-17T13:51:03.036Z,74.20
2018-12-17T13:53:33.036Z,52.90
2018-12-17T13:56:02.279Z,52.00
2018-12-17T13:58:31.424Z,63.90
2018-12-17T14:01:00.522Z,59.70
2018-12-17T14:03:29.682Z,61.83
2018-12-17T14:05:58.904Z,69.67
2018-12-17T14:08:28.034Z,65.20
2018-12-17T14:10:57.916Z,79.40
2018-12-17T14:13:27.045Z,69.47
2018-12-17T14:16:01.242Z,51.20
2018-12-17T14:18:35.347Z,47.43
2018-12-17T14:21:09.545Z,49.60
2018-12-17T14:23:38.662Z,51.57
2018-12-17T14:26:07.785Z,52.40
2018-12-17T14:28:36.934Z,63.00
2018-12-17T14:31:06.032Z,51.57
2018-12-17T14:33:35.117Z,65.07
2018-12-17T14:36:09.222Z,51.23
2018-12-17T14:38:39.534Z,63.90
2018-12-17T14:41:08.660Z,80.73
2018-12-17T14:43:37.768Z,73.47
2018-12-17T14:46:06.865Z,70.70
2018-12-17T14:48:35.998Z,51.17
2018-12-17T14:51:05.100Z,86.63
2018-12-17T14:53:34.216Z,87.37
2018-12-17T14:56:03.338Z,91.43
2018-12-17T14:58:32.544Z,74.03
2018-12-17T15:01:01.692Z,69.53
2018-12-17T15:03:30.798Z,67.80
2018-12-17T15:05:59.917Z,70.87
2018-12-17T15:08:29.008Z,74.53
2018-12-17T15:10:58.131Z,71.67
2018-12-17T15:13:27.270Z,76.83
2018-12-17T15:15:56.376Z,92.53
2018-12-17T15:18:25.523Z,86.60
2018-12-17T15:20:54.658Z,82.27
2018-12-17T15:23:23.861Z,80.87
2018-12-17T15:25:52.962Z,89.87
2018-12-17T15:28:22.068Z,96.40
2018-12-17T15:30:51.170Z,85.10
2018-12-17T15:33:20.317Z,82.63
2018-12-17T15:35:49.485Z,97.33
2018-12-17T15:38:18.594Z,86.40
2018-12-17T15:40:47.726Z,98.20
2018-12-17T15:43:16.853Z,83.43
2018-12-17T15:45:46.024Z,72.83
2018-12-17T15:48:15.132Z,96.00
2018-12-17T15:50:44.229Z,82.53
2018-12-17T15:53:13.384Z,87.57
2018-12-17T15:55:42.483Z,83.40
2018-12-17T15:58:11.573Z,91.97
2018-12-17T16:00:40.659Z,102.90
2018-12-17T16:03:09.754Z,70.47
2018-12-17T16:05:38.864Z,82.43
2018-12-17T16:08:07.948Z,93.60
2018-12-17T16:10:37.082Z,114.30
2018-12-17T16:13:06.205Z,121.20
2018-12-17T16:15:35.452Z,123.67
2018-12-17T16:18:04.533Z,111.07
2018-12-17T16:20:33.637Z,105.43
2018-12-17T16:23:02.786Z,99.20
2018-12-17T16:25:31.888Z,97.80
2018-12-17T16:28:01.017Z,110.67
2018-12-17T16:30:30.117Z,89.20
2018-12-17T16:32:59.271Z,81.83
2018-12-17T16:35:28.469Z,80.97
2018-12-17T16:37:57.625Z,76.50
2018-12-17T16:40:26.957Z,82.00
2018-12-17T16:42:56.138Z,86.80
2018-12-17T16:45:25.635Z,71.53
2018-12-17T16:47:54.745Z,152.97
2018-12-17T16:50:23.841Z,107.97
2018-12-17T16:52:53.012Z,134.53
2018-12-17T16:55:22.209Z,119.87
2018-12-17T16:57:51.341Z,120.77
2018-12-17T17:00:21.420Z,89.57
2018-12-17T17:02:50.617Z,103.53
2018-12-17T17:05:19.710Z,106.50
2018-12-17T17:07:50.367Z,90.77
2018-12-17T17:10:19.491Z,102.17
2018-12-17T17:12:48.890Z,122.47
2018-12-17T17:15:18.045Z,117.13
2018-12-17T17:17:47.178Z,124.40
2018-12-17T17:20:16.320Z,109.00
2018-12-17T17:22:45.411Z,91.90
2018-12-17T17:25:14.544Z,85.03
2018-12-17T17:27:43.668Z,95.47
2018-12-17T17:30:12.845Z,89.13
2018-12-17T17:32:41.937Z,88.77
2018-12-17T17:35:11.097Z,80.70
2018-12-17T17:37:40.196Z,99.00
2018-12-17T17:40:09.317Z,97.90
2018-12-17T17:42:38.430Z,87.60
2018-12-17T17:45:07.570Z,86.93
2018-12-17T17:47:36.775Z,95.23
2018-12-17T17:50:06.610Z,76.27
2018-12-17T17:52:35.869Z,69.77
2018-12-17T17:55:05.254Z,77.53
2018-12-17T17:57:34.363Z,79.40
2018-12-17T18:00:03.481Z,80.40
2018-12-17T18:02:32.633Z,71.80
2018-12-17T18:05:01.776Z,81.67
2018-12-17T18:07:30.869Z,84.93
2018-12-17T18:10:00.025Z,77.20
2018-12-17T18:12:30.003Z,71.27
2018-12-17T18:14:59.209Z,88.27
2018-12-17T18:17:28.942Z,64.70
2018-12-17T18:19:58.092Z,80.67
2018-12-17T18:22:27.218Z,85.43
2018-12-17T18:24:57.877Z,82.17
2018-12-17T18:27:27.611Z,113.30
2018-12-17T18:29:57.073Z,86.07
2018-12-17T18:32:28.061Z,92.20
2018-12-17T18:34:57.983Z,73.17
2018-12-17T18:37:27.091Z,76.47
2018-12-17T18:39:56.192Z,77.20
2018-12-17T18:42:25.274Z,68.17
2018-12-17T18:44:54.388Z,61.53
2018-12-17T18:47:25.891Z,65.10
2018-12-17T18:49:54.752Z,54.37
2018-12-17T18:52:23.863Z,59.07
2018-12-17T18:54:52.985Z,72.57
2018-12-17T18:57:22.197Z,87.07
2018-12-17T18:59:51.345Z,66.00
2018-12-17T19:02:20.433Z,79.17
2018-12-17T19:04:49.565Z,70.27
2018-12-17T19:07:18.717Z,85.57
2018-12-17T19:09:47.833Z,79.47
2018-12-17T19:12:16.949Z,73.80
2018-12-17T19:14:46.038Z,104.20
2018-12-17T19:17:15.176Z,83.40
2018-12-17T19:19:44.271Z,80.03
2018-12-17T19:22:13.371Z,74.73
2018-12-17T19:24:45.230Z,77.00
2018-12-17T19:27:15.375Z,95.03
2018-12-17T19:29:44.505Z,76.13
2018-12-17T19:32:13.611Z,77.70
2018-12-17T19:34:42.763Z,101.10
2018-12-17T19:37:14.129Z,94.80
2018-12-17T19:39:44.783Z,89.03
2018-12-17T19:42:14.437Z,75.73
2018-12-17T19:44:43.594Z,101.27
2018-12-17T19:47:12.690Z,96.60
2018-12-17T19:49:41.886Z,87.23
2018-12-17T19:52:11.050Z,73.00
2018-12-17T19:54:40.157Z,77.23
2018-12-17T19:57:09.243Z,67.23
2018-12-17T19:59:38.348Z,72.67
2018-12-17T20:02:07.016Z,81.57
2018-12-17T20:04:36.161Z,72.03
2018-12-17T20:07:05.251Z,64.90
2018-12-17T20:09:34.451Z,59.40
2018-12-17T20:12:03.527Z,59.50
2018-12-17T20:14:32.626Z,59.00
2018-12-17T20:17:01.778Z,76.87
2018-12-17T20:19:32.081Z,64.07
2018-12-17T20:22:02.350Z,68.57
2018-12-17T20:24:31.486Z,57.50
2018-12-17T20:27:00.605Z,52.00
2018-12-17T20:29:29.748Z,55.00
2018-12-17T20:31:58.836Z,74.57
2018-12-17T20:34:27.975Z,48.57
2018-12-17T20:36:57.094Z,45.77
2018-12-17T20:39:26.208Z,52.50
2018-12-17T20:41:55.374Z,53.50
2018-12-17T20:44:24.510Z,51.47
2018-12-17T20:46:53.624Z,55.30
2018-12-17T20:49:22.728Z,45.60
2018-12-17T20:51:51.949Z,50.13
2018-12-17T20:54:21.100Z,45.23
2018-12-17T20:56:50.191Z,52.13
2018-12-17T20:59:19.297Z,54.70
2018-12-17T21:01:48.409Z,58.30
2018-12-17T21:04:17.502Z,54.90
2018-12-17T21:06:49.936Z,51.70
2018-12-17T21:09:17.782Z,47.73
2018-12-17T21:11:46.890Z,43.77
2018-12-17T21:14:16.019Z,49.23
2018-12-17T21:16:45.148Z,49.00
2018-12-17T21:19:14.272Z,47.80
2018-12-17T21:21:43.369Z,41.07
2018-12-17T21:24:12.493Z,45.87
2018-12-17T21:26:41.588Z,42.27
2018-12-17T21:29:10.680Z,38.07
2018-12-17T21:31:39.762Z,38.27
2018-12-17T21:34:08.861Z,40.90
2018-12-17T21:36:37.982Z,39.50
2018-12-17T21:39:08.137Z,37.83
2018-12-17T21:41:37.222Z,41.97
2018-12-17T21:44:06.312Z,31.60
2018-12-17T21:46:35.403Z,30.10
2018-12-17T21:49:04.506Z,35.27
2018-12-17T21:51:33.600Z,32.70
2018-12-17T21:54:02.689Z,34.07
2018-12-17T21:56:32.057Z,31.47
2018-12-17T21:59:01.155Z,33.63
2018-12-17T22:01:30.243Z,33.37
2018-12-17T22:03:59.329Z,31.43
2018-12-17T22:06:28.422Z,43.37
2018-12-17T22:08:57.538Z,43.07
2018-12-17T22:11:26.655Z,54.30
2018-12-17T22:13:55.753Z,53.70
2018-12-17T22:16:24.869Z,58.10
2018-12-17T22:18:53.953Z,53.37
2018-12-17T22:21:23.044Z,49.53
2018-12-17T22:23:52.153Z,53.60
2018-12-17T22:26:21.237Z,48.47
2018-12-17T22:28:50.332Z,50.57
2018-12-17T22:31:19.414Z,49.40
2018-12-17T22:33:48.526Z,46.03
2018-12-17T22:36:17.636Z,44.90
2018-12-17T22:38:46.716Z,44.90
2018-12-17T22:41:15.809Z,37.93
2018-12-17T22:43:44.908Z,49.43
2018-12-17T22:46:14.025Z,33.97
2018-12-17T22:48:43.148Z,46.17
2018-12-17T22:51:12.224Z,43.40
2018-12-17T22:53:41.320Z,39.37
2018-12-17T22:56:10.432Z,56.03
2018-12-17T22:58:42.543Z,57.00
2018-12-17T23:01:10.683Z,45.73
2018-12-17T23:03:39.787Z,31.00
2018-12-17T23:06:08.904Z,31.73
2018-12-17T23:08:41.908Z,32.83
2018-12-17T23:11:21.934Z,38.83
2018-12-17T23:14:01.797Z,39.77
2018-12-17T23:16:41.526Z,33.03
2018-12-17T23:19:09.677Z,38.80
2018-12-17T23:21:38.804Z,41.87
2018-12-17T23:24:08.002Z,43.40
2018-12-17T23:26:37.112Z,43.13
2018-12-17T23:29:06.211Z,39.80
2018-12-17T23:31:35.356Z,35.60
2018-12-17T23:34:04.429Z,40.23
2018-12-17T23:36:33.556Z,40.73
2018-12-17T23:39:02.748Z,44.40
2018-12-17T23:41:31.849Z,39.73
2018-12-17T23:44:00.945Z,41.63
2018-12-17T23:46:30.057Z,41.93
2018-12-17T23:48:59.153Z,44.73
2018-12-17T23:51:28.244Z,45.80
2018-12-17T23:53:57.334Z,48.67
2018-12-17T23:56:26.476Z,52.47
2018-12-17T23:58:55.569Z,44.50
